createdAt,value
2022-12-16T00:01:27.117Z,33.23
2022-12-16T00:03:56.318Z,34.60
2022-12-16T00:06:25.745Z,35.30
2022-12-16T00:08:52.748Z,35.73
2022-12-16T00:11:20.541Z,34.43
2022-12-16T00:13:47.565Z,34.70
2022-12-16T00:16:16.823Z,33.30
2022-12-16T00:18:45.401Z,34.47
2022-12-16T00:21:12.296Z,35.50
2022-12-16T00:23:41.585Z,35.97
2022-12-16T00:26:09.209Z,37.73
2022-12-16T00:28:36.184Z,37.20
2022-12-16T00:31:03.062Z,34.87
2022-12-16T00:33:30.089Z,36.47
2022-12-16T00:35:57.420Z,37.27
2022-12-16T00:38:26.172Z,34.40
2022-12-16T00:40:53.015Z,36.60
2022-12-16T00:43:20.348Z,37.80
2022-12-16T00:45:47.825Z,35.07
2022-12-16T00:48:15.231Z,36.53
2022-12-16T00:50:44.451Z,33.77
2022-12-16T00:53:11.224Z,35.27
2022-12-16T00:55:37.980Z,35.90
2022-12-16T00:58:04.599Z,37.33
2022-12-16T01:00:31.915Z,37.43
2022-12-16T01:02:58.910Z,36.40
2022-12-16T01:05:26.967Z,36.60
2022-12-16T01:07:54.941Z,37.53
2022-12-16T01:10:22.659Z,37.67
2022-12-16T01:12:49.627Z,39.93
2022-12-16T01:15:18.477Z,34.53
2022-12-16T01:17:45.620Z,35.23
2022-12-16T01:20:13.345Z,39.10
2022-12-16T01:22:40.724Z,36.33
2022-12-16T01:25:08.254Z,35.17
2022-12-16T01:27:35.385Z,34.33
2022-12-16T01:30:02.864Z,36.50
2022-12-16T01:32:29.959Z,32.60
2022-12-16T01:34:56.849Z,35.23
2022-12-16T01:37:24.595Z,37.00
2022-12-16T01:39:52.344Z,38.13
2022-12-16T01:42:22.504Z,38.50
2022-12-16T01:44:52.185Z,33.40
2022-12-16T01:47:33.451Z,37.03
2022-12-16T01:50:05.012Z,36.43
2022-12-16T01:52:44.845Z,34.20
2022-12-16T01:55:23.286Z,35.27
2022-12-16T01:57:57.954Z,34.93
2022-12-16T02:00:25.103Z,37.20
2022-12-16T02:02:53.899Z,38.50
2022-12-16T02:05:21.493Z,36.17
2022-12-16T02:08:06.398Z,37.97
2022-12-16T02:10:46.937Z,36.23
2022-12-16T02:13:32.513Z,36.13
2022-12-16T02:16:17.457Z,34.27
2022-12-16T02:19:21.724Z,35.73
2022-12-16T02:21:55.259Z,37.70
2022-12-16T02:24:30.644Z,35.40
2022-12-16T02:27:17.782Z,36.07
2022-12-16T02:29:59.061Z,37.23
2022-12-16T02:32:31.217Z,34.33
2022-12-16T02:35:10.183Z,36.00
2022-12-16T02:38:03.122Z,37.67
2022-12-16T02:40:47.684Z,37.47
2022-12-16T02:43:53.568Z,36.50
2022-12-16T02:46:34.020Z,36.87
2022-12-16T02:49:09.174Z,36.13
2022-12-16T02:51:38.344Z,37.93
2022-12-16T02:54:08.212Z,36.23
2022-12-16T02:57:00.275Z,35.50
2022-12-16T02:59:41.920Z,38.07
2022-12-16T03:02:22.788Z,36.70
2022-12-16T03:04:53.796Z,37.10
2022-12-16T03:07:24.498Z,36.23
2022-12-16T03:09:53.359Z,36.50
2022-12-16T03:12:22.552Z,34.67
2022-12-16T03:14:53.398Z,36.10
2022-12-16T03:17:22.277Z,39.33
2022-12-16T03:20:12.098Z,36.63
2022-12-16T03:22:43.096Z,36.03
2022-12-16T03:25:09.976Z,35.00
2022-12-16T03:27:49.858Z,34.73
2022-12-16T03:30:22.355Z,34.47
2022-12-16T03:32:58.259Z,37.73
2022-12-16T03:35:42.882Z,35.87
2022-12-16T03:38:12.428Z,35.60
2022-12-16T03:40:42.062Z,36.50
2022-12-16T03:43:14.157Z,34.43
2022-12-16T03:45:45.674Z,37.67
2022-12-16T03:48:13.939Z,35.30
2022-12-16T03:50:41.169Z,35.97
2022-12-16T03:53:07.953Z,35.80
2022-12-16T03:55:35.390Z,36.33
2022-12-16T03:58:02.278Z,36.03
2022-12-16T04:00:29.144Z,34.47
2022-12-16T04:02:55.951Z,31.53
2022-12-16T04:05:23.386Z,27.43
2022-12-16T04:07:50.169Z,30.30
2022-12-16T04:10:16.980Z,28.60
2022-12-16T04:13:02.376Z,29.67
2022-12-16T04:15:47.661Z,31.67
2022-12-16T04:18:36.154Z,29.10
2022-12-16T04:21:22.785Z,28.53
2022-12-16T04:24:11.900Z,28.47
2022-12-16T04:26:56.979Z,29.13
2022-12-16T04:29:24.167Z,27.43
2022-12-16T04:31:52.056Z,28.27
2022-12-16T04:34:29.375Z,28.50
2022-12-16T04:37:19.644Z,26.67
2022-12-16T04:40:05.679Z,27.10
2022-12-16T04:42:51.529Z,29.00
2022-12-16T04:45:37.384Z,28.60
2022-12-16T04:48:22.855Z,27.57
2022-12-16T04:51:08.426Z,28.07
2022-12-16T04:53:53.870Z,27.33
2022-12-16T04:56:39.219Z,26.03
2022-12-16T04:59:24.573Z,25.93
2022-12-16T05:02:10.104Z,27.80
2022-12-16T05:04:55.445Z,27.23
2022-12-16T05:07:40.706Z,27.13
2022-12-16T05:10:26.810Z,26.13
2022-12-16T05:13:13.310Z,26.97
2022-12-16T05:15:58.773Z,28.30
2022-12-16T05:18:44.158Z,26.57
2022-12-16T05:21:29.556Z,26.80
2022-12-16T05:24:15.137Z,30.37
2022-12-16T05:27:00.662Z,25.97
2022-12-16T05:29:56.864Z,24.70
2022-12-16T05:32:42.229Z,27.27
2022-12-16T05:35:27.605Z,27.80
2022-12-16T05:38:13.301Z,26.77
2022-12-16T05:40:58.600Z,27.40
2022-12-16T05:43:44.022Z,27.77
2022-12-16T05:46:29.692Z,28.13
2022-12-16T05:49:14.786Z,27.10
2022-12-16T05:52:00.268Z,26.07
2022-12-16T05:54:45.532Z,27.77
2022-12-16T05:57:30.898Z,27.73
2022-12-16T06:00:16.277Z,27.07
2022-12-16T06:03:01.727Z,26.03
2022-12-16T06:05:47.041Z,26.13
2022-12-16T06:08:32.279Z,25.57
2022-12-16T06:11:17.682Z,24.50
2022-12-16T06:14:03.074Z,25.03
2022-12-16T06:16:48.584Z,23.37
2022-12-16T06:19:34.081Z,23.90
2022-12-16T06:22:19.618Z,24.50
2022-12-16T06:25:04.777Z,24.03
2022-12-16T06:27:50.192Z,24.43
2022-12-16T06:30:35.761Z,22.77
2022-12-16T06:33:21.236Z,22.73
2022-12-16T06:36:06.712Z,23.50
2022-12-16T06:38:52.232Z,23.87
2022-12-16T06:41:37.626Z,22.57
2022-12-16T06:44:23.145Z,24.00
2022-12-16T06:47:08.462Z,23.83
2022-12-16T06:49:53.915Z,25.70
2022-12-16T06:52:44.015Z,20.83
2022-12-16T06:55:29.339Z,26.20
2022-12-16T06:58:17.924Z,25.00
2022-12-16T07:01:03.939Z,24.63
2022-12-16T07:03:49.305Z,24.73
2022-12-16T07:06:34.803Z,25.17
2022-12-16T07:09:20.358Z,25.07
2022-12-16T07:12:05.757Z,24.57
2022-12-16T07:14:52.720Z,25.67
2022-12-16T07:17:38.404Z,25.17
2022-12-16T07:20:24.290Z,23.57
2022-12-16T07:23:13.302Z,24.37
2022-12-16T07:26:01.254Z,27.00
2022-12-16T07:28:46.733Z,25.30
2022-12-16T07:31:31.977Z,24.93
2022-12-16T07:34:17.331Z,24.50
2022-12-16T07:37:02.736Z,25.30
2022-12-16T07:39:54.334Z,23.80
2022-12-16T07:42:40.246Z,24.07
2022-12-16T07:45:26.334Z,24.40
2022-12-16T07:48:11.693Z,21.67
2022-12-16T07:50:57.612Z,22.40
2022-12-16T07:53:43.145Z,22.30
2022-12-16T07:56:29.206Z,21.40
2022-12-16T07:59:14.597Z,23.63
2022-12-16T08:02:00.266Z,22.00
2022-12-16T08:04:45.649Z,21.37
2022-12-16T08:07:30.976Z,22.13
2022-12-16T08:10:16.388Z,22.00
2022-12-16T08:13:01.713Z,22.40
2022-12-16T08:15:47.231Z,20.93
2022-12-16T08:18:32.744Z,20.23
2022-12-16T08:21:18.050Z,21.93
2022-12-16T08:24:03.689Z,20.20
2022-12-16T08:26:49.161Z,19.67
2022-12-16T08:29:44.219Z,19.83
2022-12-16T08:32:30.879Z,18.80
2022-12-16T08:35:16.500Z,21.70
2022-12-16T08:38:01.664Z,21.83
2022-12-16T08:40:47.141Z,21.10
2022-12-16T08:43:33.119Z,20.57
2022-12-16T08:46:18.689Z,19.10
2022-12-16T08:49:04.161Z,20.40
2022-12-16T08:51:49.730Z,21.43
2022-12-16T08:54:35.129Z,20.33
2022-12-16T08:57:20.557Z,20.40
2022-12-16T09:00:25.783Z,21.17
2022-12-16T09:03:15.395Z,20.83
2022-12-16T09:06:01.629Z,20.50
2022-12-16T09:08:47.445Z,19.83
2022-12-16T09:11:32.830Z,19.07
2022-12-16T09:14:18.247Z,19.70
2022-12-16T09:17:03.739Z,17.63
2022-12-16T09:19:49.251Z,19.03
2022-12-16T09:22:45.507Z,20.60
2022-12-16T09:25:31.069Z,18.67
2022-12-16T09:28:16.475Z,18.47
2022-12-16T09:31:04.778Z,19.27
2022-12-16T09:33:49.943Z,18.07
2022-12-16T09:36:35.261Z,17.50
2022-12-16T09:39:20.735Z,18.80
2022-12-16T09:42:47.203Z,19.00
2022-12-16T09:45:44.854Z,20.17
2022-12-16T09:48:43.135Z,17.50
2022-12-16T09:51:30.184Z,17.37
2022-12-16T09:54:16.047Z,17.00
2022-12-16T09:57:04.060Z,17.17
2022-12-16T10:00:00.852Z,17.60
2022-12-16T10:02:46.442Z,17.37
2022-12-16T10:05:34.178Z,16.93
2022-12-16T10:08:55.172Z,17.00
2022-12-16T10:11:49.233Z,16.20
2022-12-16T10:14:42.145Z,16.50
2022-12-16T10:17:27.541Z,15.83
2022-12-16T10:20:53.087Z,16.17
2022-12-16T10:23:50.834Z,18.47
2022-12-16T10:26:47.441Z,17.37
2022-12-16T10:29:40.450Z,16.47
2022-12-16T10:32:46.037Z,17.20
2022-12-16T10:35:46.815Z,15.60
2022-12-16T10:39:01.137Z,17.43
2022-12-16T10:41:52.616Z,15.83
2022-12-16T10:44:42.757Z,15.00
2022-12-16T10:47:30.958Z,15.90
2022-12-16T10:50:17.502Z,15.87
2022-12-16T10:53:21.157Z,14.87
2022-12-16T10:56:37.401Z,17.80
2022-12-16T10:59:25.420Z,16.63
2022-12-16T11:02:19.301Z,15.77
2022-12-16T11:05:05.427Z,17.30
2022-12-16T11:07:58.508Z,16.93
2022-12-16T11:10:49.717Z,16.83
2022-12-16T11:13:54.017Z,15.17
2022-12-16T11:16:41.752Z,14.50
2022-12-16T11:19:46.296Z,14.57
2022-12-16T11:22:38.018Z,15.30
2022-12-16T11:25:36.239Z,14.43
2022-12-16T11:28:31.682Z,14.87
2022-12-16T11:31:21.376Z,15.00
2022-12-16T11:34:08.290Z,15.23
2022-12-16T11:36:56.259Z,16.30
2022-12-16T11:39:45.102Z,15.40
2022-12-16T11:42:42.542Z,14.20
2022-12-16T11:45:37.138Z,15.03
2022-12-16T11:48:37.054Z,14.13
2022-12-16T11:51:23.550Z,13.90
2022-12-16T11:54:26.785Z,15.10
2022-12-16T11:57:14.696Z,15.73
2022-12-16T12:00:07.508Z,15.10
2022-12-16T12:03:02.694Z,13.40
2022-12-16T12:05:56.157Z,15.97
2022-12-16T12:08:50.978Z,14.03
2022-12-16T12:12:21.975Z,15.50
2022-12-16T12:15:21.255Z,14.20
2022-12-16T12:18:36.717Z,14.50
2022-12-16T12:21:38.081Z,18.87
2022-12-16T12:24:38.284Z,15.13
2022-12-16T12:27:38.799Z,16.23
2022-12-16T12:30:40.915Z,14.23
2022-12-16T12:34:04.075Z,13.83
2022-12-16T12:37:17.975Z,14.67
2022-12-16T12:40:05.491Z,14.17
2022-12-16T12:43:04.618Z,14.40
2022-12-16T12:46:01.789Z,13.00
2022-12-16T12:49:28.760Z,14.03
2022-12-16T12:52:38.671Z,15.07
2022-12-16T12:55:44.200Z,13.50
2022-12-16T12:58:31.240Z,14.10
2022-12-16T13:01:19.446Z,15.23
2022-12-16T13:04:27.838Z,14.33
2022-12-16T13:07:13.763Z,14.80
2022-12-16T13:09:59.310Z,15.80
2022-12-16T13:12:51.364Z,15.13
2022-12-16T13:15:51.834Z,14.97
2022-12-16T13:18:41.400Z,14.43
2022-12-16T13:21:54.665Z,13.70
2022-12-16T13:24:41.869Z,17.50
2022-12-16T13:27:35.137Z,15.17
2022-12-16T13:30:40.950Z,14.80
2022-12-16T13:33:49.786Z,15.33
2022-12-16T13:36:37.301Z,15.37
2022-12-16T13:39:48.638Z,16.60
2022-12-16T13:43:06.251Z,16.53
2022-12-16T13:46:02.949Z,14.10
2022-12-16T13:48:55.357Z,13.63
2022-12-16T13:51:55.611Z,15.80
2022-12-16T13:55:11.545Z,16.57
2022-12-16T13:58:01.333Z,15.20
2022-12-16T14:00:57.748Z,15.93
2022-12-16T14:03:56.635Z,15.20
2022-12-16T14:06:44.058Z,17.37
2022-12-16T14:09:51.389Z,15.67
2022-12-16T14:12:55.175Z,15.33
2022-12-16T14:16:16.432Z,16.10
2022-12-16T14:19:27.947Z,15.53
2022-12-16T14:22:29.867Z,15.87
2022-12-16T14:25:28.057Z,14.87
2022-12-16T14:28:13.660Z,15.50
2022-12-16T14:30:59.796Z,15.67
2022-12-16T14:33:47.437Z,14.53
2022-12-16T14:36:47.237Z,15.50
2022-12-16T14:39:40.259Z,14.80
2022-12-16T14:42:51.860Z,15.13
2022-12-16T14:45:53.598Z,14.13
2022-12-16T14:48:53.866Z,14.33
2022-12-16T14:51:43.308Z,14.00
2022-12-16T14:54:54.705Z,14.67
2022-12-16T14:57:48.374Z,14.87
2022-12-16T15:00:37.961Z,14.17
2022-12-16T15:03:45.047Z,14.03
2022-12-16T15:06:39.957Z,14.83
2022-12-16T15:09:31.351Z,13.20
2022-12-16T15:12:16.856Z,14.00
2022-12-16T15:15:05.382Z,15.53
2022-12-16T15:18:22.295Z,15.77
2022-12-16T15:21:13.582Z,14.00
2022-12-16T15:24:03.774Z,15.00
2022-12-16T15:26:51.818Z,13.87
2022-12-16T15:29:58.404Z,14.30
2022-12-16T15:32:43.650Z,14.50
2022-12-16T15:35:51.001Z,16.73
2022-12-16T15:38:53.069Z,16.40
2022-12-16T15:41:52.707Z,14.67
2022-12-16T15:44:43.408Z,15.60
2022-12-16T15:47:43.605Z,16.40
2022-12-16T15:50:33.512Z,14.67
2022-12-16T15:53:47.893Z,14.83
2022-12-16T15:57:03.165Z,15.20
2022-12-16T15:59:57.099Z,16.83
2022-12-16T16:02:46.594Z,16.97
2022-12-16T16:05:40.974Z,16.43
2022-12-16T16:08:27.360Z,14.80
2022-12-16T16:11:12.930Z,16.30
2022-12-16T16:14:06.094Z,17.63
2022-12-16T16:16:55.001Z,16.87
2022-12-16T16:20:03.192Z,16.13
2022-12-16T16:22:49.204Z,16.23
2022-12-16T16:25:34.722Z,16.90
2022-12-16T16:28:20.241Z,16.00
2022-12-16T16:31:05.648Z,17.80
2022-12-16T16:33:51.061Z,17.60
2022-12-16T16:36:36.317Z,17.50
2022-12-16T16:39:21.819Z,16.57
2022-12-16T16:42:07.205Z,17.17
2022-12-16T16:44:52.505Z,17.73
2022-12-16T16:47:38.117Z,17.60
2022-12-16T16:50:25.011Z,15.80
2022-12-16T16:53:10.401Z,18.13
2022-12-16T16:55:55.870Z,16.80
2022-12-16T16:58:48.174Z,17.33
2022-12-16T17:01:35.761Z,19.37
2022-12-16T17:04:22.186Z,18.57
2022-12-16T17:07:07.893Z,19.20
2022-12-16T17:09:53.580Z,19.30
2022-12-16T17:12:44.756Z,19.17
2022-12-16T17:16:04.675Z,19.40
2022-12-16T17:18:52.505Z,20.80
2022-12-16T17:21:37.938Z,19.97
2022-12-16T17:24:23.652Z,22.00
2022-12-16T17:27:09.134Z,21.00
2022-12-16T17:30:01.945Z,21.60
2022-12-16T17:32:47.615Z,12.47
2022-12-16T17:35:52.895Z,21.90
2022-12-16T17:38:38.115Z,19.07
2022-12-16T17:41:23.339Z,21.97
2022-12-16T17:44:11.391Z,21.60
2022-12-16T17:46:56.942Z,21.57
2022-12-16T17:49:42.574Z,19.40
2022-12-16T17:52:28.138Z,20.50
2022-12-16T17:55:13.132Z,21.47
2022-12-16T17:57:58.570Z,20.67
2022-12-16T18:00:43.991Z,22.17
2022-12-16T18:03:29.640Z,20.83
2022-12-16T18:06:16.482Z,22.23
2022-12-16T18:09:01.650Z,19.20
2022-12-16T18:11:47.193Z,21.70
2022-12-16T18:14:32.732Z,19.97
2022-12-16T18:17:18.270Z,20.93
2022-12-16T18:20:03.996Z,21.17
2022-12-16T18:22:49.469Z,21.33
2022-12-16T18:25:34.911Z,20.50
2022-12-16T18:28:20.330Z,19.40
2022-12-16T18:31:05.867Z,20.73
2022-12-16T18:33:51.432Z,23.33
2022-12-16T18:36:37.023Z,22.00
2022-12-16T18:39:22.960Z,22.17
2022-12-16T18:42:08.455Z,21.20
2022-12-16T18:45:00.682Z,21.03
2022-12-16T18:47:47.208Z,21.93
2022-12-16T18:50:37.512Z,22.10
2022-12-16T18:53:24.668Z,21.93
2022-12-16T18:56:25.590Z,21.03
2022-12-16T18:59:11.941Z,21.77
2022-12-16T19:01:59.337Z,21.10
2022-12-16T19:04:44.631Z,20.53
2022-12-16T19:07:33.588Z,20.20
2022-12-16T19:10:19.902Z,20.50
2022-12-16T19:13:05.474Z,19.57
2022-12-16T19:15:50.961Z,20.50
2022-12-16T19:18:36.715Z,19.80
2022-12-16T19:21:22.317Z,20.13
2022-12-16T19:24:08.098Z,19.87
2022-12-16T19:26:56.586Z,20.10
2022-12-16T19:29:42.815Z,20.30
2022-12-16T19:32:28.538Z,20.53
2022-12-16T19:35:13.674Z,20.57
2022-12-16T19:37:58.985Z,19.50
2022-12-16T19:40:48.963Z,21.83
2022-12-16T19:43:34.980Z,18.80
2022-12-16T19:46:20.752Z,21.40
2022-12-16T19:49:05.959Z,19.70
2022-12-16T19:51:51.821Z,19.83
2022-12-16T19:54:37.432Z,20.77
2022-12-16T19:57:22.930Z,18.87
2022-12-16T20:00:08.335Z,20.60
2022-12-16T20:02:56.586Z,20.00
2022-12-16T20:05:42.333Z,21.10
2022-12-16T20:08:27.676Z,19.50
2022-12-16T20:11:13.128Z,18.27
2022-12-16T20:13:58.698Z,19.80
2022-12-16T20:16:43.969Z,20.53
2022-12-16T20:19:28.999Z,19.17
2022-12-16T20:22:16.452Z,19.90
2022-12-16T20:25:02.110Z,20.10
2022-12-16T20:27:47.617Z,20.30
2022-12-16T20:30:32.973Z,19.37
2022-12-16T20:33:18.515Z,21.70
2022-12-16T20:36:18.041Z,20.17
2022-12-16T20:39:03.467Z,22.23
2022-12-16T20:41:48.805Z,20.30
2022-12-16T20:44:34.005Z,27.67
2022-12-16T20:47:20.976Z,21.50
2022-12-16T20:50:06.540Z,24.30
2022-12-16T20:52:52.069Z,25.67
2022-12-16T20:55:37.686Z,26.70
2022-12-16T20:58:22.864Z,31.70
2022-12-16T21:01:12.393Z,22.97
2022-12-16T21:03:57.942Z,27.43
2022-12-16T21:06:43.437Z,25.50
2022-12-16T21:09:28.954Z,28.30
2022-12-16T21:12:14.271Z,25.47
2022-12-16T21:14:59.543Z,62.13
2022-12-16T21:17:44.998Z,24.80
2022-12-16T21:20:30.543Z,22.27
2022-12-16T21:23:21.386Z,22.70
2022-12-16T21:26:06.693Z,21.27
2022-12-16T21:28:52.444Z,21.60
2022-12-16T21:31:41.274Z,21.63
2022-12-16T21:34:26.850Z,22.43
2022-12-16T21:37:12.170Z,23.47
2022-12-16T21:39:57.322Z,25.07
2022-12-16T21:42:44.313Z,21.33
2022-12-16T21:45:30.266Z,22.03
2022-12-16T21:48:15.599Z,21.10
2022-12-16T21:51:01.150Z,21.83
2022-12-16T21:53:47.030Z,22.47
2022-12-16T21:56:32.550Z,20.77
2022-12-16T21:59:17.788Z,22.07
2022-12-16T22:02:04.675Z,21.60
2022-12-16T22:04:50.080Z,21.93
2022-12-16T22:07:35.665Z,21.77
2022-12-16T22:10:21.710Z,22.00
2022-12-16T22:13:07.205Z,21.87
2022-12-16T22:15:52.508Z,20.20
2022-12-16T22:18:44.994Z,22.40
2022-12-16T22:21:31.387Z,25.43
2022-12-16T22:24:16.854Z,25.63
2022-12-16T22:27:02.636Z,31.80
2022-12-16T22:29:48.259Z,36.57
2022-12-16T22:32:33.654Z,39.57
2022-12-16T22:35:18.975Z,31.30
2022-12-16T22:38:04.140Z,35.33
2022-12-16T22:40:49.663Z,30.00
2022-12-16T22:43:35.474Z,30.87
2022-12-16T22:46:21.936Z,28.47
2022-12-16T22:49:07.607Z,27.27
2022-12-16T22:51:52.909Z,24.60
2022-12-16T22:54:39.389Z,22.70
2022-12-16T22:57:24.921Z,24.57
2022-12-16T23:00:10.099Z,33.40
2022-12-16T23:02:56.631Z,37.63
2022-12-16T23:05:42.072Z,37.03
2022-12-16T23:08:27.547Z,31.20
2022-12-16T23:11:14.679Z,27.97
2022-12-16T23:14:00.053Z,28.47
2022-12-16T23:16:45.715Z,29.73
2022-12-16T23:19:31.131Z,28.97
2022-12-16T23:22:16.631Z,28.50
2022-12-16T23:25:02.110Z,49.77
2022-12-16T23:27:47.386Z,31.23
2022-12-16T23:30:32.865Z,29.13
2022-12-16T23:33:19.549Z,29.03
2022-12-16T23:36:04.804Z,32.00
2022-12-16T23:38:50.697Z,24.87
2022-12-16T23:41:35.973Z,23.10
2022-12-16T23:44:21.444Z,22.57
2022-12-16T23:47:06.713Z,22.17
2022-12-16T23:49:52.260Z,22.20
2022-12-16T23:52:37.768Z,22.90
2022-12-16T23:55:23.358Z,23.77
2022-12-16T23:58:16.939Z,23.93
